sensor_id;sensor_type;location;lat;lon;timestamp;pressure;altitude;pressure_sealevel;temperature;humidity
79221;BME280;68648;52.114;5.424;2023-04-23T11:13:57;100505.41;;;17.10;48.63
79221;BME280;68648;52.114;5.424;2023-04-23T11:16:25;100501.25;;;17.07;47.59
79221;BME280;68648;52.114;5.424;2023-04-23T11:18:59;100502.94;;;17.30;47.72
79221;BME280;68648;52.114;5.424;2023-04-23T11:26:57;100486.63;;;17.46;46.04
79221;BME280;68648;52.114;5.424;2023-04-23T11:29:26;100489.63;;;17.58;45.94
79221;BME280;68648;52.114;5.424;2023-04-23T11:31:54;100485.69;;;17.75;44.25
79221;BME280;68648;52.114;5.424;2023-04-23T11:34:24;100486.44;;;17.47;44.47
79221;BME280;68648;52.114;5.424;2023-04-23T11:36:52;100479.50;;;17.53;45.48
79221;BME280;68648;52.114;5.424;2023-04-23T11:40:29;100471.16;;;17.84;45.44
79221;BME280;68648;52.114;5.424;2023-04-23T11:42:58;100463.94;;;17.85;44.90
79221;BME280;68648;52.114;5.424;2023-04-23T11:45:26;100460.66;;;17.89;44.92
79221;BME280;68648;52.114;5.424;2023-04-23T11:47:57;100454.34;;;17.97;45.02
79221;BME280;68648;52.114;5.424;2023-04-23T11:50:31;100461.75;;;17.95;45.67
79221;BME280;68648;52.114;5.424;2023-04-23T11:53:07;100460.44;;;17.84;45.78
79221;BME280;68648;52.114;5.424;2023-04-23T11:55:35;100448.56;;;17.93;46.29
79221;BME280;68648;52.114;5.424;2023-04-23T11:58:01;100440.47;;;17.87;46.62
79221;BME280;68648;52.114;5.424;2023-04-23T12:00:29;100439.03;;;17.84;45.17
79221;BME280;68648;52.114;5.424;2023-04-23T12:03:03;100433.16;;;17.67;44.99
79221;BME280;68648;52.114;5.424;2023-04-23T12:05:39;100432.94;;;17.47;45.35
79221;BME280;68648;52.114;5.424;2023-04-23T12:08:16;100427.41;;;17.49;45.81
79221;BME280;68648;52.114;5.424;2023-04-23T12:10:54;100420.97;;;17.65;46.42
79221;BME280;68648;52.114;5.424;2023-04-23T12:13:22;100424.69;;;17.64;44.97
79221;BME280;68648;52.114;5.424;2023-04-23T12:15:55;100417.63;;;17.63;44.34
79221;BME280;68648;52.114;5.424;2023-04-23T12:18:29;100421.13;;;17.63;45.64
79221;BME280;68648;52.114;5.424;2023-04-23T12:21:04;100408.88;;;17.69;45.33
79221;BME280;68648;52.114;5.424;2023-04-23T12:23:38;100411.94;;;17.66;45.67
79221;BME280;68648;52.114;5.424;2023-04-23T12:26:13;100412.59;;;17.74;46.17
79221;BME280;68648;52.114;5.424;2023-04-23T12:28:54;100407.31;;;17.88;44.76
79221;BME280;68648;52.114;5.424;2023-04-23T12:31:24;100408.59;;;18.26;45.40
79221;BME280;68648;52.114;5.424;2023-04-23T12:34:07;100399.53;;;18.75;45.44
79221;BME280;68648;52.114;5.424;2023-04-23T12:36:36;100405.28;;;18.72;43.59
79221;BME280;68648;52.114;5.424;2023-04-23T12:39:24;100400.84;;;18.44;44.24
79221;BME280;68648;52.114;5.424;2023-04-23T12:41:58;100388.38;;;18.17;44.82
79221;BME280;68648;52.114;5.424;2023-04-23T12:44:28;100391.56;;;17.99;45.14
79221;BME280;68648;52.114;5.424;2023-04-23T12:46:59;100393.94;;;17.88;44.32
79221;BME280;68648;52.114;5.424;2023-04-23T12:49:30;100385.38;;;17.99;44.93
79221;BME280;68648;52.114;5.424;2023-04-23T12:51:58;100385.78;;;18.02;45.34
79221;BME280;68648;52.114;5.424;2023-04-23T12:54:31;100381.00;;;18.32;45.72
79221;BME280;68648;52.114;5.424;2023-04-23T12:56:59;100379.53;;;18.84;43.59
79221;BME280;68648;52.114;5.424;2023-04-23T12:59:30;100375.69;;;18.52;43.17
79221;BME280;68648;52.114;5.424;2023-04-23T13:01:58;100369.38;;;18.18;44.52
79221;BME280;68648;52.114;5.424;2023-04-23T13:04:30;100368.94;;;18.02;45.69
79221;BME280;68648;52.114;5.424;2023-04-23T13:06:57;100372.97;;;17.91;45.67
79221;BME280;68648;52.114;5.424;2023-04-23T13:09:24;100369.78;;;17.74;45.55
79221;BME280;68648;52.114;5.424;2023-04-23T13:11:53;100353.72;;;17.74;45.06
79221;BME280;68648;52.114;5.424;2023-04-23T13:14:20;100348.75;;;17.65;45.33
79221;BME280;68648;52.114;5.424;2023-04-23T13:16:47;100343.81;;;17.68;46.34
79221;BME280;68648;52.114;5.424;2023-04-23T13:19:14;100335.19;;;17.73;45.15
79221;BME280;68648;52.114;5.424;2023-04-23T13:21:42;100331.78;;;17.58;45.59
79221;BME280;68648;52.114;5.424;2023-04-23T13:24:09;100324.44;;;17.38;46.68
79221;BME280;68648;52.114;5.424;2023-04-23T13:26:36;100330.41;;;17.40;46.67
79221;BME280;68648;52.114;5.424;2023-04-23T13:29:02;100323.53;;;17.53;47.60
79221;BME280;68648;52.114;5.424;2023-04-23T13:31:29;100324.56;;;17.58;48.01
79221;BME280;68648;52.114;5.424;2023-04-23T13:33:56;100315.69;;;17.51;47.75
79221;BME280;68648;52.114;5.424;2023-04-23T13:36:24;100314.25;;;17.55;46.88
79221;BME280;68648;52.114;5.424;2023-04-23T13:38:53;100307.66;;;17.51;45.87
79221;BME280;68648;52.114;5.424;2023-04-23T13:41:20;100308.38;;;17.38;46.14
79221;BME280;68648;52.114;5.424;2023-04-23T13:43:46;100309.72;;;17.49;45.88
79221;BME280;68648;52.114;5.424;2023-04-23T13:46:13;100306.97;;;17.42;44.31
79221;BME280;68648;52.114;5.424;2023-04-23T13:48:40;100311.06;;;17.38;44.70
79221;BME280;68648;52.114;5.424;2023-04-23T13:51:06;100307.41;;;17.46;45.94
79221;BME280;68648;52.114;5.424;2023-04-23T13:53:48;100305.94;;;17.71;45.73
79221;BME280;68648;52.114;5.424;2023-04-23T13:56:15;100302.03;;;17.74;46.54
79221;BME280;68648;52.114;5.424;2023-04-23T13:58:41;100298.09;;;17.70;45.78
79221;BME280;68648;52.114;5.424;2023-04-23T14:01:11;100299.13;;;17.34;45.90
79221;BME280;68648;52.114;5.424;2023-04-23T14:03:40;100295.03;;;17.10;46.83
79221;BME280;68648;52.114;5.424;2023-04-23T14:06:06;100283.31;;;17.11;47.05
79221;BME280;68648;52.114;5.424;2023-04-23T14:08:33;100282.16;;;17.21;47.00
79221;BME280;68648;52.114;5.424;2023-04-23T14:11:02;100278.66;;;17.20;47.23
79221;BME280;68648;52.114;5.424;2023-04-23T14:13:29;100272.25;;;17.14;47.82
79221;BME280;68648;52.114;5.424;2023-04-23T14:15:56;100269.19;;;17.18;48.44
79221;BME280;68648;52.114;5.424;2023-04-23T14:18:23;100249.63;;;17.17;48.31
79221;BME280;68648;52.114;5.424;2023-04-23T14:20:49;100257.22;;;17.13;48.33
79221;BME280;68648;52.114;5.424;2023-04-23T14:23:49;100251.88;;;17.13;48.56
79221;BME280;68648;52.114;5.424;2023-04-23T14:26:31;100250.13;;;16.99;49.05
79221;BME280;68648;52.114;5.424;2023-04-23T14:29:08;100250.53;;;16.75;50.03
79221;BME280;68648;52.114;5.424;2023-04-23T14:31:36;100248.88;;;16.74;50.02
79221;BME280;68648;52.114;5.424;2023-04-23T14:34:04;100242.78;;;16.80;50.32
79221;BME280;68648;52.114;5.424;2023-04-23T14:36:31;100244.88;;;16.85;50.26
79221;BME280;68648;52.114;5.424;2023-04-23T14:38:58;100244.09;;;16.91;50.43
79221;BME280;68648;52.114;5.424;2023-04-23T14:41:31;100240.41;;;16.92;50.99
79221;BME280;68648;52.114;5.424;2023-04-23T14:44:01;100233.03;;;16.72;51.11
79221;BME280;68648;52.114;5.424;2023-04-23T14:46:28;100237.41;;;16.59;52.21
79221;BME280;68648;52.114;5.424;2023-04-23T14:48:55;100234.59;;;16.39;53.08
79221;BME280;68648;52.114;5.424;2023-04-23T14:51:22;100232.72;;;16.18;54.75
79221;BME280;68648;52.114;5.424;2023-04-23T14:53:49;100243.19;;;15.98;56.69
79221;BME280;68648;52.114;5.424;2023-04-23T14:56:16;100249.03;;;15.72;59.45
79221;BME280;68648;52.114;5.424;2023-04-23T14:58:42;100249.59;;;15.38;63.01
79221;BME280;68648;52.114;5.424;2023-04-23T15:01:09;100252.56;;;14.91;65.69
79221;BME280;68648;52.114;5.424;2023-04-23T15:03:36;100270.94;;;14.41;65.32
79221;BME280;68648;52.114;5.424;2023-04-23T15:06:03;100281.88;;;13.84;69.17
79221;BME280;68648;52.114;5.424;2023-04-23T15:08:29;100286.56;;;13.18;74.28
79221;BME280;68648;52.114;5.424;2023-04-23T15:10:56;100291.72;;;12.63;76.68
79221;BME280;68648;52.114;5.424;2023-04-23T15:15:56;100298.03;;;11.96;79.96
79221;BME280;68648;52.114;5.424;2023-04-23T15:18:28;100306.91;;;11.78;82.10
79221;BME280;68648;52.114;5.424;2023-04-23T15:20:54;100317.28;;;11.72;82.58
79221;BME280;68648;52.114;5.424;2023-04-23T15:23:21;100301.03;;;11.67;83.02
79221;BME280;68648;52.114;5.424;2023-04-23T15:25:49;100304.00;;;11.64;83.87
79221;BME280;68648;52.114;5.424;2023-04-23T15:28:16;100304.16;;;11.62;84.13
79221;BME280;68648;52.114;5.424;2023-04-23T15:30:43;100304.09;;;11.54;84.67
79221;BME280;68648;52.114;5.424;2023-04-23T15:33:13;100303.47;;;11.52;84.96
79221;BME280;68648;52.114;5.424;2023-04-23T15:35:39;100292.66;;;11.45;86.00
79221;BME280;68648;52.114;5.424;2023-04-23T15:38:06;100302.41;;;11.45;85.94
79221;BME280;68648;52.114;5.424;2023-04-23T15:40:32;100298.78;;;11.46;85.89
79221;BME280;68648;52.114;5.424;2023-04-23T15:43:10;100310.50;;;11.43;86.19
79221;BME280;68648;52.114;5.424;2023-04-23T15:45:38;100305.38;;;11.42;86.58
79221;BME280;68648;52.114;5.424;2023-04-23T15:48:05;100310.00;;;11.40;86.08
79221;BME280;68648;52.114;5.424;2023-04-23T15:50:32;100310.97;;;11.39;86.91
79221;BME280;68648;52.114;5.424;2023-04-23T15:52:59;100306.50;;;11.39;87.45
79221;BME280;68648;52.114;5.424;2023-04-23T15:55:27;100304.69;;;11.40;86.79
79221;BME280;68648;52.114;5.424;2023-04-23T15:57:55;100300.53;;;11.37;87.56
79221;BME280;68648;52.114;5.424;2023-04-23T16:00:24;100300.22;;;11.40;87.20
79221;BME280;68648;52.114;5.424;2023-04-23T16:02:50;100288.31;;;11.36;87.22
79221;BME280;68648;52.114;5.424;2023-04-23T16:05:17;100291.59;;;11.38;87.57
79221;BME280;68648;52.114;5.424;2023-04-23T16:07:44;100287.09;;;11.31;86.61
79221;BME280;68648;52.114;5.424;2023-04-23T16:10:10;100289.38;;;11.26;87.35
79221;BME280;68648;52.114;5.424;2023-04-23T16:12:37;100289.84;;;11.21;87.34
79221;BME280;68648;52.114;5.424;2023-04-23T16:15:04;100295.13;;;11.21;87.64
79221;BME280;68648;52.114;5.424;2023-04-23T16:17:31;100286.88;;;11.24;87.08
79221;BME280;68648;52.114;5.424;2023-04-23T16:19:57;100290.50;;;11.23;86.79
79221;BME280;68648;52.114;5.424;2023-04-23T16:22:24;100286.34;;;11.20;87.20
79221;BME280;68648;52.114;5.424;2023-04-23T16:24:51;100273.59;;;11.16;87.13
79221;BME280;68648;52.114;5.424;2023-04-23T16:27:17;100270.13;;;11.15;87.46
79221;BME280;68648;52.114;5.424;2023-04-23T16:29:44;100264.69;;;11.17;87.52
79221;BME280;68648;52.114;5.424;2023-04-23T16:32:10;100254.09;;;11.17;87.02
79221;BME280;68648;52.114;5.424;2023-04-23T16:34:36;100247.81;;;11.18;87.40
79221;BME280;68648;52.114;5.424;2023-04-23T16:37:03;100243.34;;;11.18;86.68
79221;BME280;68648;52.114;5.424;2023-04-23T16:39:30;100236.56;;;11.24;87.22
79221;BME280;68648;52.114;5.424;2023-04-23T16:41:57;100224.47;;;11.21;86.92
79221;BME280;68648;52.114;5.424;2023-04-23T16:44:25;100222.66;;;11.22;87.10
79221;BME280;68648;52.114;5.424;2023-04-23T16:46:51;100214.72;;;11.22;86.61
79221;BME280;68648;52.114;5.424;2023-04-23T16:49:18;100213.03;;;11.21;86.79
79221;BME280;68648;52.114;5.424;2023-04-23T16:51:44;100207.75;;;11.21;86.67
79221;BME280;68648;52.114;5.424;2023-04-23T16:54:11;100197.16;;;11.21;86.08
79221;BME280;68648;52.114;5.424;2023-04-23T16:56:38;100192.38;;;11.25;86.62
79221;BME280;68648;52.114;5.424;2023-04-23T16:59:05;100184.28;;;11.26;86.94
79221;BME280;68648;52.114;5.424;2023-04-23T17:01:31;100175.97;;;11.21;86.08
79221;BME280;68648;52.114;5.424;2023-04-23T17:03:58;100164.53;;;11.20;86.45
79221;BME280;68648;52.114;5.424;2023-04-23T17:06:29;100154.47;;;11.16;85.70
79221;BME280;68648;52.114;5.424;2023-04-23T17:08:57;100140.84;;;11.11;85.84
79221;BME280;68648;52.114;5.424;2023-04-23T17:11:25;100127.25;;;11.06;85.61
79221;BME280;68648;52.114;5.424;2023-04-23T17:13:52;100127.91;;;11.00;85.54
79221;BME280;68648;52.114;5.424;2023-04-23T17:16:18;100117.94;;;10.94;86.19
79221;BME280;68648;52.114;5.424;2023-04-23T17:18:45;100106.84;;;10.90;86.07
79221;BME280;68648;52.114;5.424;2023-04-23T17:21:12;100104.34;;;10.88;86.69
79221;BME280;68648;52.114;5.424;2023-04-23T17:23:38;100092.78;;;10.90;86.30
79221;BME280;68648;52.114;5.424;2023-04-23T17:26:05;100091.59;;;10.84;87.21
79221;BME280;68648;52.114;5.424;2023-04-23T17:28:32;100082.53;;;10.86;86.76
79221;BME280;68648;52.114;5.424;2023-04-23T17:30:58;100074.25;;;10.90;87.26
79221;BME280;68648;52.114;5.424;2023-04-23T17:33:26;100073.94;;;10.93;86.89
79221;BME280;68648;52.114;5.424;2023-04-23T17:35:53;100072.13;;;10.93;86.50
79221;BME280;68648;52.114;5.424;2023-04-23T17:38:21;100071.28;;;10.84;87.28
79221;BME280;68648;52.114;5.424;2023-04-23T17:40:48;100063.00;;;10.88;87.12
79221;BME280;68648;52.114;5.424;2023-04-23T17:43:15;100058.38;;;10.90;87.24
79221;BME280;68648;52.114;5.424;2023-04-23T17:45:42;100058.88;;;10.93;87.39
79221;BME280;68648;52.114;5.424;2023-04-23T17:48:11;100051.25;;;10.90;87.60
79221;BME280;68648;52.114;5.424;2023-04-23T17:50:38;100046.47;;;10.85;87.02
79221;BME280;68648;52.114;5.424;2023-04-23T17:53:04;100042.31;;;10.83;87.76
79221;BME280;68648;52.114;5.424;2023-04-23T17:55:31;100041.44;;;10.74;87.48
79221;BME280;68648;52.114;5.424;2023-04-23T17:57:59;100040.59;;;10.66;87.73
79221;BME280;68648;52.114;5.424;2023-04-23T18:00:36;100027.66;;;10.63;87.24
79221;BME280;68648;52.114;5.424;2023-04-23T18:03:04;100031.44;;;10.60;88.08
79221;BME280;68648;52.114;5.424;2023-04-23T18:05:31;100031.75;;;10.57;88.20
79221;BME280;68648;52.114;5.424;2023-04-23T18:08:12;100019.22;;;10.59;87.81
79221;BME280;68648;52.114;5.424;2023-04-23T18:10:43;100018.22;;;10.60;87.50
79221;BME280;68648;52.114;5.424;2023-04-23T18:13:11;100011.59;;;10.56;87.68
79221;BME280;68648;52.114;5.424;2023-04-23T18:15:38;100010.44;;;10.59;87.69
79221;BME280;68648;52.114;5.424;2023-04-23T18:18:06;100015.75;;;10.59;88.23
79221;BME280;68648;52.114;5.424;2023-04-23T18:20:32;100003.66;;;10.56;88.92
79221;BME280;68648;52.114;5.424;2023-04-23T18:23:04;100004.66;;;10.55;88.59
79221;BME280;68648;52.114;5.424;2023-04-23T18:25:31;99998.72;;;10.53;88.79
79221;BME280;68648;52.114;5.424;2023-04-23T18:27:58;99998.03;;;10.51;88.47
79221;BME280;68648;52.114;5.424;2023-04-23T18:30:24;99994.72;;;10.49;88.87
79221;BME280;68648;52.114;5.424;2023-04-23T18:35:36;99994.03;;;10.47;88.81
79221;BME280;68648;52.114;5.424;2023-04-23T18:38:09;99983.78;;;10.44;88.81
79221;BME280;68648;52.114;5.424;2023-04-23T18:40:36;99993.22;;;10.46;89.54
79221;BME280;68648;52.114;5.424;2023-04-23T18:43:02;99978.47;;;10.44;89.54
79221;BME280;68648;52.114;5.424;2023-04-23T18:45:29;99978.47;;;10.44;89.10
79221;BME280;68648;52.114;5.424;2023-04-23T18:47:57;99976.81;;;10.43;89.08
79221;BME280;68648;52.114;5.424;2023-04-23T18:50:30;99969.19;;;10.40;89.42
79221;BME280;68648;52.114;5.424;2023-04-23T18:53:00;99976.97;;;10.41;89.61
79221;BME280;68648;52.114;5.424;2023-04-23T18:55:27;99969.19;;;10.40;88.71
79221;BME280;68648;52.114;5.424;2023-04-23T18:57:54;99974.50;;;10.40;89.14
79221;BME280;68648;52.114;5.424;2023-04-23T19:00:21;99971.00;;;10.39;89.87
79221;BME280;68648;52.114;5.424;2023-04-23T19:02:48;99961.44;;;10.38;89.26
79221;BME280;68648;52.114;5.424;2023-04-23T19:05:14;99959.78;;;10.37;89.49
79221;BME280;68648;52.114;5.424;2023-04-23T19:07:42;99954.81;;;10.34;89.43
79221;BME280;68648;52.114;5.424;2023-04-23T19:10:09;99962.91;;;10.33;88.93
79221;BME280;68648;52.114;5.424;2023-04-23T19:12:36;99956.31;;;10.37;89.31
79221;BME280;68648;52.114;5.424;2023-04-23T19:15:04;99953.34;;;10.40;89.54
79221;BME280;68648;52.114;5.424;2023-04-23T19:17:31;99957.00;;;10.39;89.23
79221;BME280;68648;52.114;5.424;2023-04-23T19:19:57;99957.78;;;10.39;89.05
79221;BME280;68648;52.114;5.424;2023-04-23T19:22:26;99945.25;;;10.41;89.13
79221;BME280;68648;52.114;5.424;2023-04-23T19:24:53;99938.13;;;10.42;89.44
79221;BME280;68648;52.114;5.424;2023-04-23T19:27:19;99950.38;;;10.43;88.98
79221;BME280;68648;52.114;5.424;2023-04-23T19:29:47;99938.50;;;10.47;88.93
79221;BME280;68648;52.114;5.424;2023-04-23T19:32:14;99940.84;;;10.50;88.74
79221;BME280;68648;52.114;5.424;2023-04-23T19:34:44;99935.38;;;10.51;88.15
79221;BME280;68648;52.114;5.424;2023-04-23T19:37:11;99930.91;;;10.52;88.54
79221;BME280;68648;52.114;5.424;2023-04-23T19:39:37;99925.63;;;10.52;89.33
79221;BME280;68648;52.114;5.424;2023-04-23T19:42:04;99915.06;;;10.52;88.24
79221;BME280;68648;52.114;5.424;2023-04-23T19:44:32;99915.88;;;10.52;88.47
79221;BME280;68648;52.114;5.424;2023-04-23T19:46:59;99911.41;;;10.53;88.32
79221;BME280;68648;52.114;5.424;2023-04-23T19:49:25;99915.88;;;10.52;88.39
79221;BME280;68648;52.114;5.424;2023-04-23T19:51:53;99915.06;;;10.52;88.19
79221;BME280;68648;52.114;5.424;2023-04-23T19:54:21;99907.78;;;10.54;88.15
79221;BME280;68648;52.114;5.424;2023-04-23T19:56:50;99906.81;;;10.55;88.91
79221;BME280;68648;52.114;5.424;2023-04-23T19:59:16;99901.31;;;10.57;88.49
79221;BME280;68648;52.114;5.424;2023-04-23T20:01:46;99897.69;;;10.58;87.99
79221;BME280;68648;52.114;5.424;2023-04-23T20:04:13;99895.88;;;10.58;88.33
79221;BME280;68648;52.114;5.424;2023-04-23T20:06:41;99897.53;;;10.59;88.55
79221;BME280;68648;52.114;5.424;2023-04-23T20:09:08;99896.22;;;10.63;88.46
79221;BME280;68648;52.114;5.424;2023-04-23T20:11:44;99896.06;;;10.65;88.76
79221;BME280;68648;52.114;5.424;2023-04-23T20:14:12;99886.31;;;10.65;88.29
79221;BME280;68648;52.114;5.424;2023-04-23T20:16:39;99886.16;;;10.67;88.60
79221;BME280;68648;52.114;5.424;2023-04-23T20:19:06;99884.50;;;10.66;88.18
79221;BME280;68648;52.114;5.424;2023-04-23T20:21:37;99882.84;;;10.65;88.00
79221;BME280;68648;52.114;5.424;2023-04-23T20:24:11;99879.69;;;10.61;88.30
79221;BME280;68648;52.114;5.424;2023-04-23T20:26:39;99874.72;;;10.58;88.21
79221;BME280;68648;52.114;5.424;2023-04-23T20:29:07;99877.19;;;10.51;88.25
79221;BME280;68648;52.114;5.424;2023-04-23T20:31:34;99879.16;;;10.49;89.00
79221;BME280;68648;52.114;5.424;2023-04-23T20:34:01;99874.50;;;10.43;88.57
79221;BME280;68648;52.114;5.424;2023-04-23T20:36:28;99867.25;;;10.37;88.86
79221;BME280;68648;52.114;5.424;2023-04-23T20:38:58;99868.53;;;10.33;89.08
79221;BME280;68648;52.114;5.424;2023-04-23T20:41:28;99867.72;;;10.33;88.63
79221;BME280;68648;52.114;5.424;2023-04-23T20:43:57;99861.75;;;10.31;88.84
79221;BME280;68648;52.114;5.424;2023-04-23T20:46:24;99851.03;;;10.32;89.38
79221;BME280;68648;52.114;5.424;2023-04-23T20:48:54;99849.22;;;10.33;89.40
79221;BME280;68648;52.114;5.424;2023-04-23T20:51:22;99852.84;;;10.32;89.06
79221;BME280;68648;52.114;5.424;2023-04-23T20:53:49;99852.63;;;10.25;88.45
79221;BME280;68648;52.114;5.424;2023-04-23T20:56:16;99849.50;;;10.22;88.97
79221;BME280;68648;52.114;5.424;2023-04-23T20:58:43;99843.16;;;10.14;88.81
79221;BME280;68648;52.114;5.424;2023-04-23T21:01:10;99851.88;;;10.07;88.20
79221;BME280;68648;52.114;5.424;2023-04-23T21:03:37;99843.78;;;10.00;88.51
79221;BME280;68648;52.114;5.424;2023-04-23T21:06:05;99842.59;;;9.95;88.39
79221;BME280;68648;52.114;5.424;2023-04-23T21:08:32;99838.78;;;9.89;88.13
79221;BME280;68648;52.114;5.424;2023-04-23T21:10:59;99836.63;;;9.85;88.21
79221;BME280;68648;52.114;5.424;2023-04-23T21:13:26;99837.38;;;9.77;87.65
79221;BME280;68648;52.114;5.424;2023-04-23T21:15:53;99823.84;;;9.72;87.20
79221;BME280;68648;52.114;5.424;2023-04-23T21:18:19;99831.41;;;9.67;86.59
79221;BME280;68648;52.114;5.424;2023-04-23T21:20:46;99825.91;;;9.60;86.97
79221;BME280;68648;52.114;5.424;2023-04-23T21:23:12;99815.16;;;9.54;87.24
79221;BME280;68648;52.114;5.424;2023-04-23T21:25:39;99816.91;;;9.45;87.41
79221;BME280;68648;52.114;5.424;2023-04-23T21:28:05;99822.84;;;9.39;87.07
79221;BME280;68648;52.114;5.424;2023-04-23T21:30:47;99820.97;;;9.31;87.45
79221;BME280;68648;52.114;5.424;2023-04-23T21:33:15;99822.41;;;9.26;87.33
79221;BME280;68648;52.114;5.424;2023-04-23T21:35:42;99817.59;;;9.21;88.01
79221;BME280;68648;52.114;5.424;2023-04-23T21:38:09;99823.34;;;9.17;87.62
79221;BME280;68648;52.114;5.424;2023-04-23T21:40:37;99822.66;;;9.15;88.01
79221;BME280;68648;52.114;5.424;2023-04-23T21:43:04;99825.00;;;9.18;87.95
79221;BME280;68648;52.114;5.424;2023-04-23T21:45:31;99824.16;;;9.17;88.13
79221;BME280;68648;52.114;5.424;2023-04-23T21:47:58;99819.56;;;9.19;88.85
79221;BME280;68648;52.114;5.424;2023-04-23T21:50:27;99820.25;;;9.21;88.81
79221;BME280;68648;52.114;5.424;2023-04-23T21:52:55;99818.44;;;9.22;88.81
79221;BME280;68648;52.114;5.424;2023-04-23T21:55:27;99818.97;;;9.25;88.71
79221;BME280;68648;52.114;5.424;2023-04-23T21:57:54;99821.25;;;9.28;88.73
79221;BME280;68648;52.114;5.424;2023-04-23T22:00:39;99827.06;;;9.32;88.96
79221;BME280;68648;52.114;5.424;2023-04-23T22:03:05;99816.34;;;9.33;88.50
79221;BME280;68648;52.114;5.424;2023-04-23T22:05:34;99821.63;;;9.33;88.62
79221;BME280;68648;52.114;5.424;2023-04-23T22:08:01;99825.94;;;9.34;88.57
79221;BME280;68648;52.114;5.424;2023-04-23T22:10:28;99817.88;;;9.36;89.26
79221;BME280;68648;52.114;5.424;2023-04-23T22:12:55;99825.78;;;9.36;89.33
79221;BME280;68648;52.114;5.424;2023-04-23T22:15:21;99826.91;;;9.33;89.86
79221;BME280;68648;52.114;5.424;2023-04-23T22:17:50;99827.75;;;9.34;89.25
79221;BME280;68648;52.114;5.424;2023-04-23T22:20:19;99825.25;;;9.32;89.88
79221;BME280;68648;52.114;5.424;2023-04-23T22:22:49;99815.53;;;9.33;89.95
79221;BME280;68648;52.114;5.424;2023-04-23T22:25:17;99819.16;;;9.32;90.32
79221;BME280;68648;52.114;5.424;2023-04-23T22:27:44;99822.78;;;9.31;90.47
79221;BME280;68648;52.114;5.424;2023-04-23T22:30:11;99816.66;;;9.30;90.12
79221;BME280;68648;52.114;5.424;2023-04-23T22:32:38;99817.50;;;9.31;90.42
79221;BME280;68648;52.114;5.424;2023-04-23T22:35:05;99815.84;;;9.30;90.65
79221;BME280;68648;52.114;5.424;2023-04-23T22:37:33;99815.84;;;9.30;90.66
79221;BME280;68648;52.114;5.424;2023-04-23T22:40:00;99813.03;;;9.31;90.45
79221;BME280;68648;52.114;5.424;2023-04-23T22:42:26;99813.88;;;9.32;90.98
79221;BME280;68648;52.114;5.424;2023-04-23T22:44:53;99817.03;;;9.35;90.52
79221;BME280;68648;52.114;5.424;2023-04-23T22:47:19;99817.03;;;9.35;90.84
79221;BME280;68648;52.114;5.424;2023-04-23T22:49:46;99818.00;;;9.34;91.15
79221;BME280;68648;52.114;5.424;2023-04-23T22:52:12;99817.88;;;9.36;90.74
79221;BME280;68648;52.114;5.424;2023-04-23T22:54:42;99826.31;;;9.39;90.65
79221;BME280;68648;52.114;5.424;2023-04-23T22:57:09;99815.69;;;9.31;90.03
79221;BME280;68648;52.114;5.424;2023-04-23T22:59:37;99818.75;;;9.19;89.91
79221;BME280;68648;52.114;5.424;2023-04-23T23:02:06;99825.72;;;9.02;90.36
79221;BME280;68648;52.114;5.424;2023-04-23T23:04:33;99831.09;;;8.92;90.53
79221;BME280;68648;52.114;5.424;2023-04-23T23:07:04;99839.59;;;8.86;90.38
79221;BME280;68648;52.114;5.424;2023-04-23T23:09:31;99845.47;;;8.80;90.43
79221;BME280;68648;52.114;5.424;2023-04-23T23:12:02;99850.38;;;8.75;90.45
79221;BME280;68648;52.114;5.424;2023-04-23T23:14:29;99850.00;;;8.70;90.88
79221;BME280;68648;52.114;5.424;2023-04-23T23:16:57;99862.50;;;8.68;90.51
79221;BME280;68648;52.114;5.424;2023-04-23T23:19:24;99853.06;;;8.65;90.87
79221;BME280;68648;52.114;5.424;2023-04-23T23:21:56;99855.84;;;8.64;90.77
79221;BME280;68648;52.114;5.424;2023-04-23T23:24:22;99847.44;;;8.60;91.03
79221;BME280;68648;52.114;5.424;2023-04-23T23:26:49;99857.16;;;8.60;90.91
79221;BME280;68648;52.114;5.424;2023-04-23T23:29:16;99864.38;;;8.58;90.50
79221;BME280;68648;52.114;5.424;2023-04-23T23:31:42;99877.56;;;8.58;90.59
79221;BME280;68648;52.114;5.424;2023-04-23T23:34:09;99848.72;;;8.56;90.53
79221;BME280;68648;52.114;5.424;2023-04-23T23:36:36;99872.44;;;8.56;90.99
79221;BME280;68648;52.114;5.424;2023-04-23T23:39:03;99869.81;;;8.56;90.70
79221;BME280;68648;52.114;5.424;2023-04-23T23:41:31;99869.13;;;8.54;90.28
79221;BME280;68648;52.114;5.424;2023-04-23T23:43:58;99870.25;;;8.52;91.02
79221;BME280;68648;52.114;5.424;2023-04-23T23:46:24;99871.22;;;8.51;90.67
79221;BME280;68648;52.114;5.424;2023-04-23T23:48:51;99875.81;;;8.49;90.96
79221;BME280;68648;52.114;5.424;2023-04-23T23:51:17;99882.34;;;8.45;90.70
79221;BME280;68648;52.114;5.424;2023-04-23T23:53:44;99886.28;;;8.40;90.72
79221;BME280;68648;52.114;5.424;2023-04-23T23:56:10;99887.41;;;8.38;90.49
79221;BME280;68648;52.114;5.424;2023-04-23T23:58:37;99889.22;;;8.37;90.75
